createdAt,value
2018-12-30T00:00:38.073Z,12.47
2018-12-30T00:03:06.557Z,11.37
2018-12-30T00:05:34.997Z,11.50
2018-12-30T00:08:03.142Z,10.67
2018-12-30T00:10:31.310Z,11.30
2018-12-30T00:12:59.449Z,11.80
2018-12-30T00:15:28.231Z,11.87
2018-12-30T00:17:56.404Z,11.20
2018-12-30T00:20:24.539Z,11.13
2018-12-30T00:22:52.685Z,10.83
2018-12-30T00:25:20.858Z,12.37
2018-12-30T00:27:49.394Z,11.93
2018-12-30T00:30:17.573Z,11.50
2018-12-30T00:32:45.710Z,11.10
2018-12-30T00:35:13.885Z,11.80
2018-12-30T00:37:42.025Z,11.87
2018-12-30T00:40:10.166Z,12.27
2018-12-30T00:42:38.846Z,12.10
2018-12-30T00:45:06.984Z,11.73
2018-12-30T00:47:35.153Z,11.97
2018-12-30T00:50:03.298Z,11.00
2018-12-30T00:52:31.469Z,12.43
2018-12-30T00:54:59.606Z,12.23
2018-12-30T00:57:28.145Z,13.40
2018-12-30T00:59:56.412Z,14.07
2018-12-30T01:02:24.556Z,12.30
2018-12-30T01:04:52.727Z,12.20
2018-12-30T01:07:20.858Z,13.73
2018-12-30T01:09:49.030Z,13.97
2018-12-30T01:12:17.175Z,15.80
2018-12-30T01:14:45.342Z,15.73
2018-12-30T01:17:13.482Z,15.57
2018-12-30T01:19:41.622Z,15.70
2018-12-30T01:22:09.796Z,15.77
2018-12-30T01:24:37.938Z,14.10
2018-12-30T01:27:06.118Z,13.90
2018-12-30T01:29:34.297Z,14.73
2018-12-30T01:32:02.426Z,15.00
2018-12-30T01:34:30.571Z,14.67
2018-12-30T01:36:58.738Z,14.93
2018-12-30T01:39:26.985Z,14.57
2018-12-30T01:41:55.121Z,14.87
2018-12-30T01:44:23.303Z,15.30
2018-12-30T01:46:51.434Z,15.00
2018-12-30T01:49:19.617Z,13.30
2018-12-30T01:51:51.147Z,14.00
2018-12-30T01:54:19.297Z,13.97
2018-12-30T01:56:47.445Z,12.90
2018-12-30T01:59:15.618Z,14.47
2018-12-30T02:01:43.774Z,14.77
2018-12-30T02:04:11.950Z,13.47
2018-12-30T02:06:40.390Z,14.83
2018-12-30T02:09:08.563Z,14.40
2018-12-30T02:11:36.701Z,17.03
2018-12-30T02:14:04.838Z,18.53
2018-12-30T02:16:33.013Z,22.10
2018-12-30T02:19:01.149Z,21.63
2018-12-30T02:21:29.325Z,21.10
2018-12-30T02:23:57.461Z,23.20
2018-12-30T02:26:25.629Z,24.93
2018-12-30T02:28:53.778Z,25.27
2018-12-30T02:31:21.957Z,25.00
2018-12-30T02:33:50.589Z,24.57
2018-12-30T02:36:18.762Z,27.50
2018-12-30T02:38:46.898Z,27.30
2018-12-30T02:41:15.078Z,27.93
2018-12-30T02:43:43.218Z,24.80
2018-12-30T02:46:11.654Z,22.87
2018-12-30T02:48:39.826Z,23.63
2018-12-30T02:51:07.974Z,24.03
2018-12-30T02:53:36.142Z,22.17
2018-12-30T02:56:04.282Z,22.27
2018-12-30T02:58:32.862Z,22.03
2018-12-30T03:01:01.001Z,22.50
2018-12-30T03:03:29.378Z,20.67
2018-12-30T03:05:57.518Z,19.80
2018-12-30T03:08:25.650Z,18.80
2018-12-30T03:10:53.823Z,18.47
2018-12-30T03:13:21.962Z,16.83
2018-12-30T03:15:50.137Z,15.70
2018-12-30T03:18:18.271Z,14.37
2018-12-30T03:20:46.451Z,13.97
2018-12-30T03:23:14.583Z,13.37
2018-12-30T03:25:42.755Z,13.53
2018-12-30T03:28:10.894Z,12.27
2018-12-30T03:30:39.035Z,12.27
2018-12-30T03:33:07.220Z,11.80
2018-12-30T03:35:35.349Z,11.60
2018-12-30T03:38:03.618Z,10.30
2018-12-30T03:40:31.973Z,11.27
2018-12-30T03:43:00.152Z,10.60
2018-12-30T03:45:28.296Z,10.63
2018-12-30T03:47:56.443Z,9.87
2018-12-30T03:50:24.614Z,10.10
2018-12-30T03:52:52.926Z,8.93
2018-12-30T03:55:21.100Z,8.97
2018-12-30T03:57:49.243Z,8.50
2018-12-30T04:00:17.415Z,8.47
2018-12-30T04:02:45.559Z,8.40
2018-12-30T04:05:13.739Z,8.13
2018-12-30T04:07:41.880Z,7.57
2018-12-30T04:10:10.024Z,7.73
2018-12-30T04:12:38.190Z,7.87
2018-12-30T04:15:06.330Z,7.20
2018-12-30T04:17:34.512Z,7.13
2018-12-30T04:20:02.642Z,6.33
2018-12-30T04:22:30.817Z,6.93
2018-12-30T04:24:58.959Z,6.87
2018-12-30T04:27:27.098Z,6.50
2018-12-30T04:29:55.270Z,6.47
2018-12-30T04:32:23.407Z,5.83
2018-12-30T04:34:51.588Z,6.57
2018-12-30T04:37:19.729Z,5.83
2018-12-30T04:39:47.895Z,6.10
2018-12-30T04:42:16.030Z,5.33
2018-12-30T04:44:44.207Z,5.63
2018-12-30T04:47:12.351Z,5.43
2018-12-30T04:49:40.502Z,6.27
2018-12-30T04:52:08.662Z,5.20
2018-12-30T04:54:36.802Z,4.97
2018-12-30T04:57:04.992Z,5.33
2018-12-30T04:59:33.118Z,5.27
2018-12-30T05:02:01.295Z,5.10
2018-12-30T05:04:29.430Z,4.87
2018-12-30T05:06:57.602Z,4.47
2018-12-30T05:09:25.743Z,4.87
2018-12-30T05:11:53.883Z,5.60
2018-12-30T05:14:22.059Z,5.43
2018-12-30T05:16:50.198Z,4.90
2018-12-30T05:19:18.374Z,4.70
2018-12-30T05:21:46.510Z,4.57
2018-12-30T05:24:14.691Z,4.70
2018-12-30T05:26:42.825Z,4.63
2018-12-30T05:29:11.003Z,4.97
2018-12-30T05:31:39.154Z,3.93
2018-12-30T05:34:07.295Z,4.20
2018-12-30T05:36:35.466Z,4.20
2018-12-30T05:39:05.151Z,4.47
2018-12-30T05:41:33.318Z,4.43
2018-12-30T05:44:01.446Z,4.27
2018-12-30T05:46:29.614Z,3.83
2018-12-30T05:48:57.753Z,4.00
2018-12-30T05:51:25.935Z,4.87
2018-12-30T05:53:54.098Z,4.43
2018-12-30T05:56:22.238Z,4.37
2018-12-30T05:58:50.410Z,4.40
2018-12-30T06:01:18.557Z,4.17
2018-12-30T06:03:46.723Z,4.90
2018-12-30T06:06:14.879Z,4.03
2018-12-30T06:08:43.051Z,3.50
2018-12-30T06:11:11.199Z,3.50
2018-12-30T06:13:39.332Z,3.50
2018-12-30T06:16:07.504Z,3.57
2018-12-30T06:18:35.648Z,3.30
2018-12-30T06:21:03.814Z,3.00
2018-12-30T06:23:31.956Z,3.53
2018-12-30T06:26:00.116Z,3.20
2018-12-30T06:28:28.263Z,3.13
2018-12-30T06:30:56.439Z,3.10
2018-12-30T06:33:24.579Z,3.63
2018-12-30T06:35:52.723Z,3.43
2018-12-30T06:38:20.899Z,3.43
2018-12-30T06:40:49.035Z,2.80
2018-12-30T06:43:17.202Z,2.67
2018-12-30T06:45:45.346Z,3.00
2018-12-30T06:48:13.518Z,3.23
2018-12-30T06:50:41.663Z,2.97
2018-12-30T06:53:09.835Z,3.73
2018-12-30T06:55:38.014Z,3.03
2018-12-30T06:58:06.186Z,3.00
2018-12-30T07:00:35.537Z,3.20
2018-12-30T07:03:03.885Z,3.20
2018-12-30T07:05:32.054Z,3.23
2018-12-30T07:08:00.198Z,3.17
2018-12-30T07:10:28.379Z,3.33
2018-12-30T07:12:56.518Z,3.13
2018-12-30T07:15:24.707Z,3.10
2018-12-30T07:17:52.853Z,2.50
2018-12-30T07:20:21.022Z,3.90
2018-12-30T07:22:49.162Z,2.57
2018-12-30T07:25:17.348Z,2.90
2018-12-30T07:27:45.486Z,2.80
2018-12-30T07:30:13.657Z,2.70
2018-12-30T07:32:41.799Z,2.60
2018-12-30T07:43:41.132Z,1.80
2018-12-30T07:49:01.517Z,2.37
2018-12-30T07:54:00.803Z,2.50
2018-12-30T07:56:29.219Z,2.20
2018-12-30T07:58:57.723Z,2.70
2018-12-30T08:01:26.143Z,2.30
2018-12-30T08:03:54.519Z,2.50
2018-12-30T08:06:22.908Z,2.60
2018-12-30T08:08:51.352Z,2.63
2018-12-30T08:11:19.731Z,3.00
2018-12-30T08:13:48.239Z,2.77
2018-12-30T08:16:16.624Z,2.80
2018-12-30T08:18:45.026Z,2.50
2018-12-30T08:21:13.411Z,3.00
2018-12-30T08:23:41.813Z,3.60
2018-12-30T08:26:10.212Z,3.10
2018-12-30T08:28:38.590Z,3.27
2018-12-30T08:31:07.004Z,3.77
2018-12-30T08:33:35.411Z,3.97
2018-12-30T08:36:04.208Z,4.03
2018-12-30T08:38:32.577Z,3.70
2018-12-30T08:41:02.195Z,3.73
2018-12-30T08:43:31.066Z,3.17
2018-12-30T08:45:59.559Z,3.73
2018-12-30T08:48:27.974Z,3.50
2018-12-30T08:50:56.351Z,3.37
2018-12-30T08:53:29.390Z,3.60
2018-12-30T08:55:55.327Z,3.60
2018-12-30T08:58:23.843Z,3.67
2018-12-30T09:00:52.310Z,3.40
2018-12-30T09:03:20.729Z,3.53
2018-12-30T09:05:49.105Z,3.40
2018-12-30T09:08:17.483Z,3.57
2018-12-30T09:10:45.926Z,4.23
2018-12-30T09:13:14.379Z,3.70
2018-12-30T09:15:43.742Z,2.60
2018-12-30T09:18:12.151Z,3.33
2018-12-30T09:20:40.560Z,3.23
2018-12-30T09:23:08.936Z,2.80
2018-12-30T09:25:37.338Z,3.10
2018-12-30T09:28:05.713Z,2.70
2018-12-30T09:30:34.118Z,2.83
2018-12-30T09:33:02.499Z,2.33
2018-12-30T09:35:30.883Z,2.30
2018-12-30T09:37:59.300Z,2.13
2018-12-30T09:40:27.687Z,2.80
2018-12-30T09:42:56.095Z,3.10
2018-12-30T09:45:24.489Z,2.57
2018-12-30T09:47:52.975Z,2.70
2018-12-30T09:50:21.377Z,2.00
2018-12-30T09:52:49.772Z,2.37
2018-12-30T09:55:18.176Z,2.07
2018-12-30T09:57:46.556Z,2.37
2018-12-30T10:00:14.971Z,2.90
2018-12-30T10:02:43.357Z,2.60
2018-12-30T10:05:11.783Z,2.47
2018-12-30T10:07:40.167Z,1.93
2018-12-30T10:10:08.575Z,2.83
2018-12-30T10:12:36.958Z,2.30
2018-12-30T10:15:09.578Z,2.00
2018-12-30T10:17:35.467Z,2.77
2018-12-30T10:20:05.104Z,1.83
2018-12-30T10:22:33.511Z,2.60
2018-12-30T10:25:01.903Z,2.23
2018-12-30T10:27:31.211Z,3.47
2018-12-30T10:29:59.589Z,2.53
2018-12-30T10:32:27.999Z,3.43
2018-12-30T10:34:56.407Z,3.20
2018-12-30T10:37:24.814Z,3.60
2018-12-30T10:39:53.195Z,4.10
2018-12-30T10:42:21.578Z,3.93
2018-12-30T10:44:49.999Z,3.43
2018-12-30T10:47:18.375Z,9.07
2018-12-30T10:49:46.815Z,4.70
2018-12-30T10:52:15.168Z,3.60
2018-12-30T10:54:43.584Z,2.93
2018-12-30T10:57:11.963Z,3.03
2018-12-30T10:59:40.371Z,3.10
2018-12-30T11:02:08.964Z,3.00
2018-12-30T11:04:37.362Z,3.60
2018-12-30T11:07:06.113Z,3.83
2018-12-30T11:09:34.526Z,3.13
2018-12-30T11:12:04.299Z,3.97
2018-12-30T11:14:32.695Z,3.53
2018-12-30T11:17:01.112Z,3.23
2018-12-30T11:19:29.517Z,2.80
2018-12-30T11:21:57.932Z,2.80
2018-12-30T11:24:26.316Z,2.70
2018-12-30T11:26:54.735Z,3.23
2018-12-30T11:29:23.146Z,3.17
2018-12-30T11:31:51.568Z,2.70
2018-12-30T11:34:19.974Z,2.83
2018-12-30T11:36:48.355Z,2.40
2018-12-30T11:39:16.767Z,2.30
2018-12-30T11:41:45.158Z,2.33
2018-12-30T11:44:13.565Z,2.87
2018-12-30T11:46:42.011Z,6.50
2018-12-30T11:49:10.424Z,3.50
2018-12-30T11:51:38.808Z,2.73
2018-12-30T11:54:07.221Z,3.40
2018-12-30T11:56:35.596Z,3.50
2018-12-30T11:59:04.018Z,4.03
2018-12-30T12:01:32.398Z,4.10
2018-12-30T12:04:00.779Z,3.60
2018-12-30T12:06:29.191Z,4.10
2018-12-30T12:08:57.642Z,5.73
2018-12-30T12:11:26.070Z,3.73
2018-12-30T12:13:54.435Z,4.50
2018-12-30T12:16:22.850Z,4.43
2018-12-30T12:18:51.223Z,4.30
2018-12-30T12:21:19.656Z,4.33
2018-12-30T12:23:48.032Z,4.30
2018-12-30T12:26:16.443Z,4.00
2018-12-30T12:28:44.822Z,4.83
2018-12-30T12:31:13.202Z,4.40
2018-12-30T12:33:41.680Z,4.10
2018-12-30T12:36:10.090Z,3.63
2018-12-30T12:38:38.466Z,4.50
2018-12-30T12:41:06.947Z,4.30
2018-12-30T12:43:35.327Z,4.37
2018-12-30T12:46:03.740Z,4.10
2018-12-30T12:48:32.225Z,4.07
2018-12-30T12:51:00.597Z,4.37
2018-12-30T12:53:28.975Z,4.50
2018-12-30T12:55:57.534Z,4.37
2018-12-30T12:58:25.917Z,4.27
2018-12-30T13:00:54.351Z,4.10
2018-12-30T13:03:22.735Z,4.20
2018-12-30T13:05:51.167Z,4.07
2018-12-30T13:08:19.599Z,4.50
2018-12-30T13:10:48.036Z,4.80
2018-12-30T13:13:16.411Z,4.37
2018-12-30T13:15:45.955Z,4.53
2018-12-30T13:18:14.406Z,4.20
2018-12-30T13:20:42.774Z,4.67
2018-12-30T13:23:11.306Z,5.03
2018-12-30T13:25:39.785Z,4.80
2018-12-30T13:28:08.199Z,5.33
2018-12-30T13:30:36.574Z,4.70
2018-12-30T13:33:04.950Z,5.67
2018-12-30T13:35:33.462Z,5.53
2018-12-30T13:38:01.879Z,6.50
2018-12-30T13:40:30.294Z,5.80
2018-12-30T13:42:58.689Z,6.03
2018-12-30T13:45:27.103Z,6.50
2018-12-30T13:47:55.929Z,7.23
2018-12-30T13:50:24.649Z,7.00
2018-12-30T13:52:53.119Z,6.37
2018-12-30T13:55:21.529Z,6.47
2018-12-30T13:57:49.935Z,6.23
2018-12-30T14:00:18.359Z,6.07
2018-12-30T14:02:46.761Z,6.60
2018-12-30T14:05:15.151Z,6.53
2018-12-30T14:07:43.559Z,6.33
2018-12-30T14:10:11.934Z,7.17
2018-12-30T14:12:40.415Z,6.50
2018-12-30T14:15:08.811Z,6.63
2018-12-30T14:17:37.184Z,7.10
2018-12-30T14:20:07.434Z,7.37
2018-12-30T14:22:35.813Z,7.40
2018-12-30T14:25:04.903Z,8.10
2018-12-30T14:27:33.281Z,7.20
2018-12-30T14:30:01.725Z,8.00
2018-12-30T14:32:31.450Z,7.77
2018-12-30T14:35:00.300Z,8.03
2018-12-30T14:37:28.703Z,8.03
2018-12-30T14:39:57.079Z,8.13
2018-12-30T14:42:25.489Z,7.40
2018-12-30T14:44:53.862Z,8.20
2018-12-30T14:47:25.458Z,7.37
2018-12-30T14:49:53.843Z,8.27
2018-12-30T14:52:22.251Z,7.80
2018-12-30T14:54:50.702Z,7.47
2018-12-30T14:57:19.123Z,7.70
2018-12-30T14:59:47.494Z,7.27
2018-12-30T15:02:15.877Z,7.13
2018-12-30T15:04:44.275Z,6.33
2018-12-30T15:07:13.111Z,7.47
2018-12-30T15:09:41.699Z,6.27
2018-12-30T15:12:10.077Z,7.03
2018-12-30T15:14:39.471Z,6.47
2018-12-30T15:17:07.852Z,6.10
2018-12-30T15:19:36.474Z,6.17
2018-12-30T15:22:06.545Z,5.53
2018-12-30T15:24:34.955Z,6.17
2018-12-30T15:27:03.460Z,6.07
2018-12-30T15:29:33.130Z,5.93
2018-12-30T15:32:01.666Z,6.27
2018-12-30T15:34:30.284Z,5.60
2018-12-30T15:36:58.694Z,5.00
2018-12-30T15:39:27.103Z,4.67
2018-12-30T15:41:55.619Z,5.10
2018-12-30T15:44:24.506Z,5.43
2018-12-30T15:46:52.895Z,6.17
2018-12-30T15:49:21.570Z,5.20
2018-12-30T15:51:50.182Z,5.40
2018-12-30T15:54:18.559Z,5.07
2018-12-30T15:56:47.399Z,5.40
2018-12-30T15:59:15.765Z,5.10
2018-12-30T16:01:44.435Z,4.53
2018-12-30T16:04:13.615Z,4.77
2018-12-30T16:06:42.463Z,4.70
2018-12-30T16:09:10.834Z,4.53
2018-12-30T16:11:39.853Z,4.70
2018-12-30T16:14:08.929Z,5.30
2018-12-30T16:16:37.323Z,4.27
2018-12-30T16:19:05.707Z,4.50
2018-12-30T16:21:34.114Z,4.27
2018-12-30T16:24:02.482Z,4.40
2018-12-30T16:26:30.900Z,5.33
2018-12-30T16:29:02.101Z,4.57
2018-12-30T16:31:30.511Z,4.50
2018-12-30T16:34:02.275Z,4.43
2018-12-30T16:36:30.711Z,4.73
2018-12-30T16:39:03.191Z,5.77
2018-12-30T16:41:31.568Z,6.10
2018-12-30T16:43:59.947Z,5.17
2018-12-30T16:46:28.496Z,5.03
2018-12-30T16:48:56.863Z,4.67
2018-12-30T16:51:25.269Z,6.10
2018-12-30T16:53:54.075Z,5.10
2018-12-30T16:56:22.884Z,4.83
2018-12-30T16:58:51.266Z,4.50
2018-12-30T17:01:19.899Z,4.80
2018-12-30T17:03:48.280Z,5.93
2018-12-30T17:06:16.655Z,5.20
2018-12-30T17:08:45.068Z,5.13
2018-12-30T17:11:15.506Z,6.10
2018-12-30T17:13:43.901Z,5.03
2018-12-30T17:16:12.674Z,5.27
2018-12-30T17:18:41.272Z,4.87
2018-12-30T17:21:09.646Z,5.40
2018-12-30T17:23:38.062Z,5.10
2018-12-30T17:26:06.453Z,6.20
2018-12-30T17:28:35.298Z,7.53
2018-12-30T17:31:06.609Z,7.73
2018-12-30T17:33:35.026Z,7.27
2018-12-30T17:36:03.407Z,6.47
2018-12-30T17:38:32.104Z,7.57
2018-12-30T17:41:01.677Z,7.67
2018-12-30T17:43:31.804Z,8.40
2018-12-30T17:46:00.575Z,6.27
2018-12-30T17:48:29.050Z,5.70
2018-12-30T17:50:57.432Z,5.63
2018-12-30T17:53:25.840Z,5.50
2018-12-30T17:55:54.219Z,5.03
2018-12-30T17:58:22.631Z,4.90
2018-12-30T18:00:51.015Z,4.80
2018-12-30T18:03:19.428Z,5.00
2018-12-30T18:05:47.801Z,5.10
2018-12-30T18:08:17.622Z,5.23
2018-12-30T18:10:46.194Z,5.37
2018-12-30T18:13:14.599Z,4.80
2018-12-30T18:15:42.974Z,5.70
2018-12-30T18:18:11.355Z,5.83
2018-12-30T18:20:39.767Z,5.00
2018-12-30T18:23:08.177Z,5.67
2018-12-30T18:25:36.551Z,5.57
2018-12-30T18:28:04.964Z,7.27
2018-12-30T18:30:33.348Z,5.27
2018-12-30T18:33:01.750Z,5.37
2018-12-30T18:35:30.126Z,5.43
2018-12-30T18:37:58.537Z,5.87
2018-12-30T18:40:26.947Z,5.80
2018-12-30T18:42:55.327Z,5.47
2018-12-30T18:45:23.734Z,5.03
2018-12-30T18:47:52.116Z,5.73
2018-12-30T18:50:20.749Z,5.93
2018-12-30T18:52:49.386Z,5.60
2018-12-30T18:55:18.282Z,6.57
2018-12-30T18:57:46.715Z,5.57
2018-12-30T19:00:18.294Z,4.70
2018-12-30T19:02:46.764Z,5.17
2018-12-30T19:05:15.175Z,5.60
2018-12-30T19:07:43.556Z,5.50
2018-12-30T19:10:11.934Z,5.53
2018-12-30T19:12:40.345Z,6.10
2018-12-30T19:15:08.728Z,5.50
2018-12-30T19:17:37.135Z,6.17
2018-12-30T19:20:05.516Z,5.67
2018-12-30T19:22:33.927Z,6.70
2018-12-30T19:25:02.411Z,5.97
2018-12-30T19:27:35.317Z,6.17
2018-12-30T19:30:05.179Z,6.30
2018-12-30T19:32:33.587Z,6.57
2018-12-30T19:35:04.072Z,8.17
2018-12-30T19:37:32.575Z,6.40
2018-12-30T19:40:01.492Z,6.77
2018-12-30T19:45:43.206Z,6.00
2018-12-30T19:48:11.655Z,5.83
2018-12-30T19:50:40.067Z,6.20
2018-12-30T19:53:08.448Z,5.83
2018-12-30T19:55:36.859Z,6.60
2018-12-30T19:58:05.243Z,6.30
2018-12-30T20:00:33.657Z,6.50
2018-12-30T20:03:02.036Z,6.90
2018-12-30T20:05:30.412Z,6.50
2018-12-30T20:07:58.822Z,7.03
2018-12-30T20:10:27.216Z,6.47
2018-12-30T20:12:55.645Z,7.10
2018-12-30T20:15:24.033Z,6.40
2018-12-30T20:17:52.484Z,6.90
2018-12-30T20:20:27.207Z,6.87
2018-12-30T20:22:55.639Z,5.83
2018-12-30T20:25:24.023Z,5.87
2018-12-30T20:27:52.684Z,6.10
2018-12-30T20:30:21.103Z,6.40
2018-12-30T20:32:49.489Z,6.23
2018-12-30T20:35:17.899Z,6.73
2018-12-30T20:37:46.358Z,6.00
2018-12-30T20:40:14.744Z,6.20
2018-12-30T20:42:43.155Z,6.33
2018-12-30T20:45:11.542Z,6.80
2018-12-30T20:47:40.831Z,6.63
2018-12-30T20:50:09.212Z,6.70
2018-12-30T20:52:37.711Z,6.87
2018-12-30T20:55:06.019Z,6.77
2018-12-30T20:57:34.436Z,6.90
2018-12-30T21:00:02.815Z,6.67
2018-12-30T21:02:31.235Z,7.53
2018-12-30T21:04:59.683Z,7.53
2018-12-30T21:07:28.150Z,8.03
2018-12-30T21:09:56.531Z,7.90
2018-12-30T21:12:24.952Z,8.43
2018-12-30T21:14:53.335Z,9.10
2018-12-30T21:17:21.767Z,9.13
2018-12-30T21:19:50.158Z,8.97
2018-12-30T21:22:18.542Z,9.50
2018-12-30T21:24:46.977Z,8.87
2018-12-30T21:27:15.358Z,8.87
2018-12-30T21:29:43.847Z,9.60
2018-12-30T21:32:12.231Z,8.17
2018-12-30T21:34:40.710Z,8.17
2018-12-30T21:37:09.029Z,8.53
2018-12-30T21:39:37.440Z,8.93
2018-12-30T21:42:05.937Z,8.60
2018-12-30T21:44:34.354Z,9.03
2018-12-30T21:47:02.744Z,9.07
2018-12-30T21:49:31.124Z,9.63
2018-12-30T21:51:59.607Z,9.83
2018-12-30T21:54:27.992Z,8.93
2018-12-30T21:56:56.475Z,8.47
2018-12-30T21:59:26.261Z,8.97
2018-12-30T22:01:55.038Z,9.37
2018-12-30T22:04:23.427Z,10.07
2018-12-30T22:06:51.938Z,9.73
2018-12-30T22:09:20.318Z,10.43
2018-12-30T22:11:48.825Z,10.40
2018-12-30T22:14:17.160Z,10.07
2018-12-30T22:16:45.539Z,9.60
2018-12-30T22:19:13.963Z,10.23
2018-12-30T22:21:42.347Z,10.03
2018-12-30T22:24:10.768Z,10.00
2018-12-30T22:26:39.155Z,10.77
2018-12-30T22:29:07.546Z,11.67
2018-12-30T22:31:39.427Z,11.30
2018-12-30T22:34:07.771Z,12.23
2018-12-30T22:36:36.198Z,12.97
2018-12-30T22:39:08.403Z,12.37
2018-12-30T22:41:36.823Z,12.90
2018-12-30T22:44:05.216Z,13.30
2018-12-30T22:46:33.627Z,13.40
2018-12-30T22:49:02.002Z,15.53
2018-12-30T22:51:30.415Z,14.20
2018-12-30T22:53:58.794Z,15.13
2018-12-30T22:56:27.207Z,13.87
2018-12-30T22:58:55.631Z,15.80
2018-12-30T23:01:24.011Z,14.93
2018-12-30T23:03:52.418Z,15.50
2018-12-30T23:06:20.836Z,16.03
2018-12-30T23:08:49.214Z,15.20
2018-12-30T23:11:17.626Z,15.83
2018-12-30T23:13:46.007Z,15.77
2018-12-30T23:16:14.414Z,14.93
2018-12-30T23:18:42.794Z,14.37
2018-12-30T23:21:11.232Z,16.20
2018-12-30T23:23:39.655Z,17.40
2018-12-30T23:26:08.079Z,15.00
2018-12-30T23:28:36.459Z,16.83
2018-12-30T23:31:04.844Z,15.07
2018-12-30T23:33:33.255Z,15.23
2018-12-30T23:36:01.642Z,16.73
2018-12-30T23:38:30.048Z,16.23
2018-12-30T23:40:58.431Z,16.07
2018-12-30T23:43:26.837Z,14.60
2018-12-30T23:45:55.223Z,15.60
2018-12-30T23:48:23.634Z,15.97
2018-12-30T23:50:55.082Z,14.43
2018-12-30T23:53:23.567Z,15.83
2018-12-30T23:55:51.942Z,15.03
2018-12-30T23:58:20.322Z,14.70
